sensor_id;sensor_type;location;lat;lon;timestamp;P1;durP1;ratioP1;P2;durP2;ratioP2
10132;SDS011;5106;50.926;7.080;2023-08-24T00:00:19;7.75;;;3.40;;
10132;SDS011;5106;50.926;7.080;2023-08-24T00:02:46;5.20;;;3.28;;
10132;SDS011;5106;50.926;7.080;2023-08-24T00:05:11;6.38;;;3.15;;
10132;SDS011;5106;50.926;7.080;2023-08-24T00:07:38;6.88;;;3.40;;
10132;SDS011;5106;50.926;7.080;2023-08-24T00:10:04;5.68;;;3.13;;
10132;SDS011;5106;50.926;7.080;2023-08-24T00:12:29;4.68;;;2.95;;
10132;SDS011;5106;50.926;7.080;2023-08-24T00:14:58;5.72;;;3.60;;
10132;SDS011;5106;50.926;7.080;2023-08-24T00:17:24;5.10;;;3.20;;
10132;SDS011;5106;50.926;7.080;2023-08-24T00:19:49;5.43;;;3.13;;
10132;SDS011;5106;50.926;7.080;2023-08-24T00:22:15;6.70;;;3.67;;
10132;SDS011;5106;50.926;7.080;2023-08-24T00:24:40;5.32;;;3.00;;
10132;SDS011;5106;50.926;7.080;2023-08-24T00:27:06;4.63;;;3.50;;
10132;SDS011;5106;50.926;7.080;2023-08-24T00:29:31;7.22;;;3.97;;
10132;SDS011;5106;50.926;7.080;2023-08-24T00:31:57;4.70;;;3.15;;
10132;SDS011;5106;50.926;7.080;2023-08-24T00:34:23;6.20;;;3.75;;
10132;SDS011;5106;50.926;7.080;2023-08-24T00:36:48;4.00;;;3.15;;
10132;SDS011;5106;50.926;7.080;2023-08-24T00:39:14;6.03;;;3.35;;
10132;SDS011;5106;50.926;7.080;2023-08-24T00:41:41;6.20;;;3.40;;
10132;SDS011;5106;50.926;7.080;2023-08-24T00:44:07;4.97;;;3.40;;
10132;SDS011;5106;50.926;7.080;2023-08-24T00:46:32;5.55;;;3.40;;
10132;SDS011;5106;50.926;7.080;2023-08-24T00:48:59;6.07;;;3.30;;
10132;SDS011;5106;50.926;7.080;2023-08-24T00:51:25;7.03;;;3.47;;
10132;SDS011;5106;50.926;7.080;2023-08-24T00:53:51;8.35;;;3.42;;
10132;SDS011;5106;50.926;7.080;2023-08-24T00:56:17;4.35;;;3.30;;
10132;SDS011;5106;50.926;7.080;2023-08-24T00:58:45;5.00;;;3.38;;
10132;SDS011;5106;50.926;7.080;2023-08-24T01:01:12;7.22;;;3.13;;
10132;SDS011;5106;50.926;7.080;2023-08-24T01:03:38;4.40;;;3.30;;
10132;SDS011;5106;50.926;7.080;2023-08-24T01:06:03;5.90;;;3.60;;
10132;SDS011;5106;50.926;7.080;2023-08-24T01:08:29;6.72;;;3.40;;
10132;SDS011;5106;50.926;7.080;2023-08-24T01:10:59;4.45;;;3.40;;
10132;SDS011;5106;50.926;7.080;2023-08-24T01:13:50;4.38;;;3.30;;
10132;SDS011;5106;50.926;7.080;2023-08-24T01:16:42;5.72;;;3.40;;
10132;SDS011;5106;50.926;7.080;2023-08-24T01:19:21;5.35;;;3.45;;
10132;SDS011;5106;50.926;7.080;2023-08-24T01:22:15;4.38;;;3.58;;
10132;SDS011;5106;50.926;7.080;2023-08-24T01:27:33;6.18;;;3.60;;
10132;SDS011;5106;50.926;7.080;2023-08-24T01:30:02;6.28;;;3.67;;
10132;SDS011;5106;50.926;7.080;2023-08-24T01:32:32;4.43;;;3.60;;
10132;SDS011;5106;50.926;7.080;2023-08-24T01:34:59;5.15;;;3.72;;
10132;SDS011;5106;50.926;7.080;2023-08-24T01:37:26;5.80;;;3.38;;
10132;SDS011;5106;50.926;7.080;2023-08-24T01:40:00;5.15;;;3.65;;
10132;SDS011;5106;50.926;7.080;2023-08-24T01:42:39;7.35;;;3.33;;
10132;SDS011;5106;50.926;7.080;2023-08-24T01:45:13;6.30;;;3.47;;
10132;SDS011;5106;50.926;7.080;2023-08-24T01:47:41;5.63;;;3.63;;
10132;SDS011;5106;50.926;7.080;2023-08-24T01:50:08;5.05;;;3.70;;
10132;SDS011;5106;50.926;7.080;2023-08-24T01:52:34;7.22;;;4.00;;
10132;SDS011;5106;50.926;7.080;2023-08-24T01:55:00;3.92;;;3.45;;
10132;SDS011;5106;50.926;7.080;2023-08-24T01:57:25;7.53;;;3.85;;
10132;SDS011;5106;50.926;7.080;2023-08-24T01:59:51;8.73;;;4.07;;
10132;SDS011;5106;50.926;7.080;2023-08-24T02:02:17;7.75;;;3.80;;
10132;SDS011;5106;50.926;7.080;2023-08-24T02:04:42;6.70;;;3.85;;
10132;SDS011;5106;50.926;7.080;2023-08-24T02:07:08;6.20;;;3.80;;
10132;SDS011;5106;50.926;7.080;2023-08-24T02:09:33;5.13;;;3.70;;
10132;SDS011;5106;50.926;7.080;2023-08-24T02:11:59;6.90;;;3.72;;
10132;SDS011;5106;50.926;7.080;2023-08-24T02:14:24;7.85;;;3.58;;
10132;SDS011;5106;50.926;7.080;2023-08-24T02:16:50;5.45;;;3.72;;
10132;SDS011;5106;50.926;7.080;2023-08-24T02:19:15;5.45;;;3.67;;
10132;SDS011;5106;50.926;7.080;2023-08-24T02:21:41;8.18;;;4.25;;
10132;SDS011;5106;50.926;7.080;2023-08-24T02:24:06;5.95;;;3.90;;
10132;SDS011;5106;50.926;7.080;2023-08-24T02:26:32;3.85;;;3.40;;
10132;SDS011;5106;50.926;7.080;2023-08-24T02:28:58;6.38;;;3.72;;
10132;SDS011;5106;50.926;7.080;2023-08-24T02:31:24;8.35;;;3.92;;
10132;SDS011;5106;50.926;7.080;2023-08-24T02:33:49;7.00;;;3.70;;
10132;SDS011;5106;50.926;7.080;2023-08-24T02:36:15;4.80;;;3.22;;
10132;SDS011;5106;50.926;7.080;2023-08-24T02:38:40;5.03;;;3.75;;
10132;SDS011;5106;50.926;7.080;2023-08-24T02:41:06;5.20;;;3.85;;
10132;SDS011;5106;50.926;7.080;2023-08-24T02:43:33;6.00;;;3.53;;
10132;SDS011;5106;50.926;7.080;2023-08-24T02:46:02;4.93;;;3.42;;
10132;SDS011;5106;50.926;7.080;2023-08-24T02:48:29;5.25;;;3.70;;
10132;SDS011;5106;50.926;7.080;2023-08-24T02:50:59;4.63;;;3.30;;
10132;SDS011;5106;50.926;7.080;2023-08-24T02:53:25;7.40;;;3.53;;
10132;SDS011;5106;50.926;7.080;2023-08-24T02:55:52;3.92;;;3.30;;
10132;SDS011;5106;50.926;7.080;2023-08-24T02:58:18;4.10;;;3.63;;
10132;SDS011;5106;50.926;7.080;2023-08-24T03:00:44;6.90;;;3.28;;
10132;SDS011;5106;50.926;7.080;2023-08-24T03:03:09;5.22;;;3.58;;
10132;SDS011;5106;50.926;7.080;2023-08-24T03:05:35;6.28;;;3.80;;
10132;SDS011;5106;50.926;7.080;2023-08-24T03:08:01;6.82;;;3.80;;
10132;SDS011;5106;50.926;7.080;2023-08-24T03:10:38;5.55;;;3.78;;
10132;SDS011;5106;50.926;7.080;2023-08-24T03:13:04;5.70;;;3.85;;
10132;SDS011;5106;50.926;7.080;2023-08-24T03:15:29;6.60;;;3.78;;
10132;SDS011;5106;50.926;7.080;2023-08-24T03:17:56;6.30;;;4.15;;
10132;SDS011;5106;50.926;7.080;2023-08-24T03:20:21;6.50;;;3.72;;
10132;SDS011;5106;50.926;7.080;2023-08-24T03:22:47;9.63;;;3.70;;
10132;SDS011;5106;50.926;7.080;2023-08-24T03:25:13;3.80;;;3.28;;
10132;SDS011;5106;50.926;7.080;2023-08-24T03:27:38;6.90;;;3.70;;
10132;SDS011;5106;50.926;7.080;2023-08-24T03:30:04;8.98;;;4.13;;
10132;SDS011;5106;50.926;7.080;2023-08-24T03:32:30;3.83;;;3.50;;
10132;SDS011;5106;50.926;7.080;2023-08-24T03:34:59;4.32;;;3.67;;
10132;SDS011;5106;50.926;7.080;2023-08-24T03:37:25;6.65;;;4.28;;
10132;SDS011;5106;50.926;7.080;2023-08-24T03:39:50;6.43;;;4.20;;
10132;SDS011;5106;50.926;7.080;2023-08-24T03:42:16;9.00;;;3.47;;
10132;SDS011;5106;50.926;7.080;2023-08-24T03:44:42;5.88;;;3.63;;
10132;SDS011;5106;50.926;7.080;2023-08-24T03:47:07;4.95;;;3.55;;
10132;SDS011;5106;50.926;7.080;2023-08-24T03:49:33;4.70;;;3.13;;
10132;SDS011;5106;50.926;7.080;2023-08-24T03:51:59;4.95;;;3.92;;
10132;SDS011;5106;50.926;7.080;2023-08-24T03:54:28;6.30;;;3.67;;
10132;SDS011;5106;50.926;7.080;2023-08-24T03:56:53;4.38;;;3.75;;
10132;SDS011;5106;50.926;7.080;2023-08-24T03:59:25;6.57;;;4.15;;
10132;SDS011;5106;50.926;7.080;2023-08-24T04:01:50;5.10;;;4.10;;
10132;SDS011;5106;50.926;7.080;2023-08-24T04:04:16;4.65;;;4.00;;
10132;SDS011;5106;50.926;7.080;2023-08-24T04:06:42;6.68;;;3.92;;
10132;SDS011;5106;50.926;7.080;2023-08-24T04:09:07;6.30;;;3.85;;
10132;SDS011;5106;50.926;7.080;2023-08-24T04:11:34;7.03;;;4.43;;
10132;SDS011;5106;50.926;7.080;2023-08-24T04:13:59;6.13;;;3.58;;
10132;SDS011;5106;50.926;7.080;2023-08-24T04:16:25;5.18;;;4.00;;
10132;SDS011;5106;50.926;7.080;2023-08-24T04:18:50;4.97;;;3.67;;
10132;SDS011;5106;50.926;7.080;2023-08-24T04:21:16;5.85;;;3.53;;
10132;SDS011;5106;50.926;7.080;2023-08-24T04:23:42;6.43;;;3.95;;
10132;SDS011;5106;50.926;7.080;2023-08-24T04:26:13;6.40;;;3.78;;
10132;SDS011;5106;50.926;7.080;2023-08-24T04:28:39;7.88;;;3.97;;
10132;SDS011;5106;50.926;7.080;2023-08-24T04:31:05;7.68;;;3.67;;
10132;SDS011;5106;50.926;7.080;2023-08-24T04:33:30;4.90;;;4.03;;
10132;SDS011;5106;50.926;7.080;2023-08-24T04:35:56;4.35;;;3.75;;
10132;SDS011;5106;50.926;7.080;2023-08-24T04:38:23;5.13;;;3.78;;
10132;SDS011;5106;50.926;7.080;2023-08-24T04:40:50;6.20;;;4.25;;
10132;SDS011;5106;50.926;7.080;2023-08-24T04:43:17;5.13;;;3.72;;
10132;SDS011;5106;50.926;7.080;2023-08-24T04:45:45;6.25;;;3.80;;
10132;SDS011;5106;50.926;7.080;2023-08-24T04:48:12;5.53;;;3.70;;
10132;SDS011;5106;50.926;7.080;2023-08-24T04:50:38;6.18;;;3.78;;
10132;SDS011;5106;50.926;7.080;2023-08-24T04:53:04;7.65;;;4.32;;
10132;SDS011;5106;50.926;7.080;2023-08-24T04:55:30;6.00;;;3.95;;
10132;SDS011;5106;50.926;7.080;2023-08-24T04:57:55;5.13;;;3.92;;
10132;SDS011;5106;50.926;7.080;2023-08-24T05:00:21;5.43;;;3.92;;
10132;SDS011;5106;50.926;7.080;2023-08-24T05:02:47;7.60;;;4.38;;
10132;SDS011;5106;50.926;7.080;2023-08-24T05:05:13;6.97;;;3.95;;
10132;SDS011;5106;50.926;7.080;2023-08-24T05:07:39;8.02;;;4.07;;
10132;SDS011;5106;50.926;7.080;2023-08-24T05:10:05;8.15;;;4.30;;
10132;SDS011;5106;50.926;7.080;2023-08-24T05:12:31;9.77;;;4.40;;
10132;SDS011;5106;50.926;7.080;2023-08-24T05:14:58;7.90;;;4.68;;
10132;SDS011;5106;50.926;7.080;2023-08-24T05:17:24;4.78;;;4.28;;
10132;SDS011;5106;50.926;7.080;2023-08-24T05:19:52;8.50;;;4.72;;
10132;SDS011;5106;50.926;7.080;2023-08-24T05:22:18;7.07;;;4.63;;
10132;SDS011;5106;50.926;7.080;2023-08-24T05:24:44;6.30;;;4.53;;
10132;SDS011;5106;50.926;7.080;2023-08-24T05:27:10;6.18;;;4.45;;
10132;SDS011;5106;50.926;7.080;2023-08-24T05:29:35;6.20;;;4.72;;
10132;SDS011;5106;50.926;7.080;2023-08-24T05:32:01;8.50;;;4.70;;
10132;SDS011;5106;50.926;7.080;2023-08-24T05:34:27;11.07;;;5.18;;
10132;SDS011;5106;50.926;7.080;2023-08-24T05:36:56;7.88;;;4.85;;
10132;SDS011;5106;50.926;7.080;2023-08-24T05:39:23;5.93;;;4.60;;
10132;SDS011;5106;50.926;7.080;2023-08-24T05:41:50;7.90;;;4.78;;
10132;SDS011;5106;50.926;7.080;2023-08-24T05:44:17;7.07;;;4.72;;
10132;SDS011;5106;50.926;7.080;2023-08-24T05:46:43;6.82;;;4.70;;
10132;SDS011;5106;50.926;7.080;2023-08-24T05:49:11;8.25;;;4.97;;
10132;SDS011;5106;50.926;7.080;2023-08-24T05:51:46;6.78;;;5.18;;
10132;SDS011;5106;50.926;7.080;2023-08-24T05:54:11;6.15;;;5.03;;
10132;SDS011;5106;50.926;7.080;2023-08-24T05:56:38;6.75;;;4.90;;
10132;SDS011;5106;50.926;7.080;2023-08-24T05:59:04;7.97;;;5.05;;
10132;SDS011;5106;50.926;7.080;2023-08-24T06:01:29;9.20;;;5.07;;
10132;SDS011;5106;50.926;7.080;2023-08-24T06:03:55;6.43;;;4.60;;
10132;SDS011;5106;50.926;7.080;2023-08-24T06:06:20;7.55;;;4.60;;
10132;SDS011;5106;50.926;7.080;2023-08-24T06:08:46;9.77;;;5.03;;
10132;SDS011;5106;50.926;7.080;2023-08-24T06:11:12;8.30;;;4.80;;
10132;SDS011;5106;50.926;7.080;2023-08-24T06:13:37;6.07;;;4.63;;
10132;SDS011;5106;50.926;7.080;2023-08-24T06:16:03;6.25;;;4.18;;
10132;SDS011;5106;50.926;7.080;2023-08-24T06:18:28;8.90;;;4.53;;
10132;SDS011;5106;50.926;7.080;2023-08-24T06:20:54;6.43;;;5.22;;
10132;SDS011;5106;50.926;7.080;2023-08-24T06:23:20;6.47;;;4.53;;
10132;SDS011;5106;50.926;7.080;2023-08-24T06:25:46;5.13;;;4.32;;
10132;SDS011;5106;50.926;7.080;2023-08-24T06:28:12;6.60;;;4.10;;
10132;SDS011;5106;50.926;7.080;2023-08-24T06:30:38;4.90;;;4.40;;
10132;SDS011;5106;50.926;7.080;2023-08-24T06:33:05;5.70;;;5.10;;
10132;SDS011;5106;50.926;7.080;2023-08-24T06:35:32;6.72;;;4.50;;
10132;SDS011;5106;50.926;7.080;2023-08-24T06:37:58;10.63;;;5.07;;
10132;SDS011;5106;50.926;7.080;2023-08-24T06:40:25;6.15;;;4.68;;
10132;SDS011;5106;50.926;7.080;2023-08-24T06:42:50;5.72;;;5.13;;
10132;SDS011;5106;50.926;7.080;2023-08-24T06:45:16;5.45;;;4.95;;
10132;SDS011;5106;50.926;7.080;2023-08-24T06:47:43;5.93;;;4.22;;
10132;SDS011;5106;50.926;7.080;2023-08-24T06:50:09;6.55;;;4.50;;
10132;SDS011;5106;50.926;7.080;2023-08-24T06:52:35;6.32;;;4.32;;
10132;SDS011;5106;50.926;7.080;2023-08-24T06:55:01;5.20;;;4.20;;
10132;SDS011;5106;50.926;7.080;2023-08-24T06:57:27;5.22;;;4.35;;
10132;SDS011;5106;50.926;7.080;2023-08-24T06:59:53;4.97;;;4.03;;
10132;SDS011;5106;50.926;7.080;2023-08-24T07:02:18;6.20;;;4.03;;
10132;SDS011;5106;50.926;7.080;2023-08-24T07:04:44;7.70;;;4.05;;
10132;SDS011;5106;50.926;7.080;2023-08-24T07:07:10;4.55;;;4.07;;
10132;SDS011;5106;50.926;7.080;2023-08-24T07:09:36;4.90;;;4.05;;
10132;SDS011;5106;50.926;7.080;2023-08-24T07:12:02;7.85;;;4.25;;
10132;SDS011;5106;50.926;7.080;2023-08-24T07:14:28;4.97;;;3.58;;
10132;SDS011;5106;50.926;7.080;2023-08-24T07:16:54;3.80;;;3.33;;
10132;SDS011;5106;50.926;7.080;2023-08-24T07:19:19;6.28;;;4.10;;
10132;SDS011;5106;50.926;7.080;2023-08-24T07:21:45;8.90;;;3.95;;
10132;SDS011;5106;50.926;7.080;2023-08-24T07:24:11;5.55;;;3.83;;
10132;SDS011;5106;50.926;7.080;2023-08-24T07:26:36;5.07;;;4.05;;
10132;SDS011;5106;50.926;7.080;2023-08-24T07:29:02;5.47;;;3.90;;
10132;SDS011;5106;50.926;7.080;2023-08-24T07:31:28;5.07;;;3.47;;
10132;SDS011;5106;50.926;7.080;2023-08-24T07:33:53;4.53;;;3.80;;
10132;SDS011;5106;50.926;7.080;2023-08-24T07:36:19;3.95;;;2.88;;
10132;SDS011;5106;50.926;7.080;2023-08-24T07:38:45;5.00;;;3.58;;
10132;SDS011;5106;50.926;7.080;2023-08-24T07:41:12;4.45;;;3.50;;
10132;SDS011;5106;50.926;7.080;2023-08-24T07:43:37;4.32;;;3.30;;
10132;SDS011;5106;50.926;7.080;2023-08-24T07:46:03;4.32;;;3.10;;
10132;SDS011;5106;50.926;7.080;2023-08-24T07:48:29;4.82;;;3.15;;
10132;SDS011;5106;50.926;7.080;2023-08-24T07:50:55;4.78;;;3.42;;
10132;SDS011;5106;50.926;7.080;2023-08-24T07:53:21;4.28;;;3.42;;
10132;SDS011;5106;50.926;7.080;2023-08-24T07:55:47;5.97;;;3.25;;
10132;SDS011;5106;50.926;7.080;2023-08-24T07:58:13;4.38;;;3.00;;
10132;SDS011;5106;50.926;7.080;2023-08-24T08:00:38;4.32;;;2.90;;
10132;SDS011;5106;50.926;7.080;2023-08-24T08:03:04;4.50;;;3.35;;
10132;SDS011;5106;50.926;7.080;2023-08-24T08:05:30;4.50;;;3.38;;
10132;SDS011;5106;50.926;7.080;2023-08-24T08:07:55;3.67;;;3.20;;
10132;SDS011;5106;50.926;7.080;2023-08-24T08:10:21;3.95;;;2.90;;
10132;SDS011;5106;50.926;7.080;2023-08-24T08:12:46;4.78;;;3.00;;
10132;SDS011;5106;50.926;7.080;2023-08-24T08:15:13;6.03;;;3.30;;
10132;SDS011;5106;50.926;7.080;2023-08-24T08:17:38;4.90;;;2.85;;
10132;SDS011;5106;50.926;7.080;2023-08-24T08:20:04;3.72;;;2.58;;
10132;SDS011;5106;50.926;7.080;2023-08-24T08:22:30;5.22;;;3.05;;
10132;SDS011;5106;50.926;7.080;2023-08-24T08:25:00;3.17;;;2.83;;
10132;SDS011;5106;50.926;7.080;2023-08-24T08:27:26;3.28;;;2.42;;
10132;SDS011;5106;50.926;7.080;2023-08-24T08:29:52;3.83;;;2.83;;
10132;SDS011;5106;50.926;7.080;2023-08-24T08:32:18;5.07;;;2.90;;
10132;SDS011;5106;50.926;7.080;2023-08-24T08:34:43;4.28;;;3.03;;
10132;SDS011;5106;50.926;7.080;2023-08-24T08:37:09;3.63;;;2.80;;
10132;SDS011;5106;50.926;7.080;2023-08-24T08:39:35;3.00;;;2.70;;
10132;SDS011;5106;50.926;7.080;2023-08-24T08:42:01;3.70;;;2.67;;
10132;SDS011;5106;50.926;7.080;2023-08-24T08:44:29;4.20;;;2.85;;
10132;SDS011;5106;50.926;7.080;2023-08-24T08:46:59;3.13;;;2.72;;
10132;SDS011;5106;50.926;7.080;2023-08-24T08:49:25;4.85;;;2.83;;
10132;SDS011;5106;50.926;7.080;2023-08-24T08:51:51;6.75;;;3.17;;
10132;SDS011;5106;50.926;7.080;2023-08-24T08:54:17;4.22;;;3.00;;
10132;SDS011;5106;50.926;7.080;2023-08-24T08:56:43;3.63;;;2.92;;
10132;SDS011;5106;50.926;7.080;2023-08-24T08:59:09;4.93;;;2.97;;
10132;SDS011;5106;50.926;7.080;2023-08-24T09:01:38;4.53;;;2.92;;
10132;SDS011;5106;50.926;7.080;2023-08-24T09:04:04;4.43;;;3.00;;
10132;SDS011;5106;50.926;7.080;2023-08-24T09:06:32;7.57;;;3.10;;
10132;SDS011;5106;50.926;7.080;2023-08-24T09:08:59;3.90;;;2.78;;
10132;SDS011;5106;50.926;7.080;2023-08-24T09:11:25;5.05;;;2.90;;
10132;SDS011;5106;50.926;7.080;2023-08-24T09:13:51;3.47;;;2.70;;
10132;SDS011;5106;50.926;7.080;2023-08-24T09:16:16;3.80;;;2.97;;
10132;SDS011;5106;50.926;7.080;2023-08-24T09:18:43;5.93;;;2.95;;
10132;SDS011;5106;50.926;7.080;2023-08-24T09:21:11;3.28;;;2.90;;
10132;SDS011;5106;50.926;7.080;2023-08-24T09:23:54;4.68;;;2.83;;
10132;SDS011;5106;50.926;7.080;2023-08-24T09:26:27;4.32;;;2.75;;
10132;SDS011;5106;50.926;7.080;2023-08-24T09:28:54;3.97;;;2.60;;
10132;SDS011;5106;50.926;7.080;2023-08-24T09:31:20;4.00;;;2.90;;
10132;SDS011;5106;50.926;7.080;2023-08-24T09:33:46;4.45;;;2.90;;
10132;SDS011;5106;50.926;7.080;2023-08-24T09:36:13;3.65;;;2.85;;
10132;SDS011;5106;50.926;7.080;2023-08-24T09:38:45;6.93;;;2.83;;
10132;SDS011;5106;50.926;7.080;2023-08-24T09:41:12;3.72;;;2.78;;
10132;SDS011;5106;50.926;7.080;2023-08-24T09:43:38;5.25;;;2.65;;
10132;SDS011;5106;50.926;7.080;2023-08-24T09:46:05;5.13;;;2.65;;
10132;SDS011;5106;50.926;7.080;2023-08-24T09:48:32;5.32;;;3.17;;
10132;SDS011;5106;50.926;7.080;2023-08-24T09:50:58;4.63;;;2.65;;
10132;SDS011;5106;50.926;7.080;2023-08-24T09:53:28;3.25;;;2.72;;
10132;SDS011;5106;50.926;7.080;2023-08-24T09:56:01;4.43;;;3.05;;
10132;SDS011;5106;50.926;7.080;2023-08-24T09:58:28;2.75;;;2.33;;
10132;SDS011;5106;50.926;7.080;2023-08-24T10:00:54;5.75;;;3.05;;
10132;SDS011;5106;50.926;7.080;2023-08-24T10:03:24;4.50;;;2.80;;
10132;SDS011;5106;50.926;7.080;2023-08-24T10:05:51;4.35;;;2.92;;
10132;SDS011;5106;50.926;7.080;2023-08-24T10:08:26;5.57;;;2.97;;
10132;SDS011;5106;50.926;7.080;2023-08-24T10:10:54;19.48;;;3.55;;
10132;SDS011;5106;50.926;7.080;2023-08-24T10:13:27;7.70;;;3.22;;
10132;SDS011;5106;50.926;7.080;2023-08-24T10:16:14;6.20;;;2.95;;
10132;SDS011;5106;50.926;7.080;2023-08-24T10:18:41;14.73;;;3.83;;
10132;SDS011;5106;50.926;7.080;2023-08-24T10:21:07;29.48;;;5.20;;
10132;SDS011;5106;50.926;7.080;2023-08-24T10:23:36;41.92;;;5.43;;
10132;SDS011;5106;50.926;7.080;2023-08-24T10:26:03;22.75;;;4.47;;
10132;SDS011;5106;50.926;7.080;2023-08-24T10:28:32;8.63;;;3.10;;
10132;SDS011;5106;50.926;7.080;2023-08-24T10:30:58;3.80;;;2.85;;
10132;SDS011;5106;50.926;7.080;2023-08-24T10:33:25;8.38;;;2.97;;
10132;SDS011;5106;50.926;7.080;2023-08-24T10:35:51;4.50;;;2.90;;
10132;SDS011;5106;50.926;7.080;2023-08-24T10:38:24;5.88;;;3.15;;
10132;SDS011;5106;50.926;7.080;2023-08-24T10:40:51;6.80;;;3.10;;
10132;SDS011;5106;50.926;7.080;2023-08-24T10:43:17;5.15;;;2.97;;
10132;SDS011;5106;50.926;7.080;2023-08-24T10:45:59;5.03;;;2.75;;
10132;SDS011;5106;50.926;7.080;2023-08-24T10:49:11;9.38;;;3.20;;
10132;SDS011;5106;50.926;7.080;2023-08-24T10:53:56;4.72;;;2.60;;
10132;SDS011;5106;50.926;7.080;2023-08-24T10:56:47;12.40;;;3.78;;
10132;SDS011;5106;50.926;7.080;2023-08-24T10:59:17;4.65;;;2.53;;
10132;SDS011;5106;50.926;7.080;2023-08-24T11:04:20;4.22;;;2.35;;
10132;SDS011;5106;50.926;7.080;2023-08-24T11:09:24;5.03;;;2.83;;
10132;SDS011;5106;50.926;7.080;2023-08-24T11:14:26;7.57;;;3.08;;
10132;SDS011;5106;50.926;7.080;2023-08-24T11:16:56;6.00;;;2.67;;
10132;SDS011;5106;50.926;7.080;2023-08-24T11:19:24;3.83;;;2.20;;
10132;SDS011;5106;50.926;7.080;2023-08-24T11:21:50;3.58;;;2.25;;
10132;SDS011;5106;50.926;7.080;2023-08-24T11:24:16;4.32;;;2.05;;
10132;SDS011;5106;50.926;7.080;2023-08-24T11:26:43;3.63;;;2.58;;
10132;SDS011;5106;50.926;7.080;2023-08-24T11:29:10;3.92;;;2.60;;
10132;SDS011;5106;50.926;7.080;2023-08-24T11:31:36;4.38;;;2.78;;
10132;SDS011;5106;50.926;7.080;2023-08-24T11:34:03;3.17;;;2.45;;
10132;SDS011;5106;50.926;7.080;2023-08-24T11:36:29;3.88;;;2.53;;
10132;SDS011;5106;50.926;7.080;2023-08-24T11:39:18;4.18;;;2.40;;
10132;SDS011;5106;50.926;7.080;2023-08-24T11:42:06;3.70;;;2.40;;
10132;SDS011;5106;50.926;7.080;2023-08-24T11:44:47;3.10;;;2.75;;
10132;SDS011;5106;50.926;7.080;2023-08-24T11:47:13;4.20;;;2.47;;
10132;SDS011;5106;50.926;7.080;2023-08-24T11:49:39;4.43;;;2.75;;
10132;SDS011;5106;50.926;7.080;2023-08-24T11:52:05;3.13;;;2.70;;
10132;SDS011;5106;50.926;7.080;2023-08-24T11:54:35;5.53;;;2.70;;
10132;SDS011;5106;50.926;7.080;2023-08-24T11:57:07;3.28;;;2.90;;
10132;SDS011;5106;50.926;7.080;2023-08-24T11:59:34;7.60;;;3.55;;
10132;SDS011;5106;50.926;7.080;2023-08-24T12:02:00;5.55;;;2.90;;
10132;SDS011;5106;50.926;7.080;2023-08-24T12:04:26;4.05;;;2.58;;
10132;SDS011;5106;50.926;7.080;2023-08-24T12:06:52;4.80;;;2.92;;
10132;SDS011;5106;50.926;7.080;2023-08-24T12:09:18;5.18;;;2.97;;
10132;SDS011;5106;50.926;7.080;2023-08-24T12:11:43;7.78;;;3.30;;
10132;SDS011;5106;50.926;7.080;2023-08-24T12:14:15;58.50;;;8.90;;
10132;SDS011;5106;50.926;7.080;2023-08-24T12:16:42;12.98;;;3.72;;
10132;SDS011;5106;50.926;7.080;2023-08-24T12:19:08;15.13;;;4.13;;
10132;SDS011;5106;50.926;7.080;2023-08-24T12:21:34;24.33;;;4.40;;
10132;SDS011;5106;50.926;7.080;2023-08-24T12:24:01;28.20;;;5.47;;
10132;SDS011;5106;50.926;7.080;2023-08-24T12:26:34;34.13;;;5.60;;
10132;SDS011;5106;50.926;7.080;2023-08-24T12:29:04;43.63;;;7.38;;
10132;SDS011;5106;50.926;7.080;2023-08-24T12:31:34;11.38;;;3.40;;
10132;SDS011;5106;50.926;7.080;2023-08-24T12:34:04;17.38;;;4.10;;
10132;SDS011;5106;50.926;7.080;2023-08-24T12:36:35;7.20;;;3.28;;
10132;SDS011;5106;50.926;7.080;2023-08-24T12:39:02;5.80;;;3.20;;
10132;SDS011;5106;50.926;7.080;2023-08-24T12:41:30;6.13;;;3.13;;
10132;SDS011;5106;50.926;7.080;2023-08-24T12:43:56;17.02;;;5.10;;
10132;SDS011;5106;50.926;7.080;2023-08-24T12:46:22;7.78;;;3.30;;
10132;SDS011;5106;50.926;7.080;2023-08-24T12:48:48;5.88;;;3.47;;
10132;SDS011;5106;50.926;7.080;2023-08-24T12:51:15;12.82;;;3.90;;
10132;SDS011;5106;50.926;7.080;2023-08-24T12:53:41;6.90;;;3.30;;
10132;SDS011;5106;50.926;7.080;2023-08-24T12:56:06;7.70;;;3.13;;
10132;SDS011;5106;50.926;7.080;2023-08-24T12:58:32;7.65;;;3.42;;
10132;SDS011;5106;50.926;7.080;2023-08-24T13:00:58;11.32;;;3.85;;
10132;SDS011;5106;50.926;7.080;2023-08-24T13:03:25;9.13;;;3.85;;
10132;SDS011;5106;50.926;7.080;2023-08-24T13:05:53;5.97;;;3.92;;
10132;SDS011;5106;50.926;7.080;2023-08-24T13:08:18;6.75;;;3.08;;
10132;SDS011;5106;50.926;7.080;2023-08-24T13:10:44;4.80;;;3.78;;
10132;SDS011;5106;50.926;7.080;2023-08-24T13:13:09;5.85;;;3.35;;
10132;SDS011;5106;50.926;7.080;2023-08-24T13:15:35;7.72;;;3.63;;
10132;SDS011;5106;50.926;7.080;2023-08-24T13:18:00;7.22;;;3.78;;
10132;SDS011;5106;50.926;7.080;2023-08-24T13:20:26;5.38;;;3.60;;
10132;SDS011;5106;50.926;7.080;2023-08-24T13:22:55;5.15;;;3.15;;
10132;SDS011;5106;50.926;7.080;2023-08-24T13:25:20;8.85;;;3.58;;
10132;SDS011;5106;50.926;7.080;2023-08-24T13:27:46;5.93;;;3.28;;
10132;SDS011;5106;50.926;7.080;2023-08-24T13:30:11;6.47;;;3.53;;
10132;SDS011;5106;50.926;7.080;2023-08-24T13:32:37;7.40;;;3.42;;
10132;SDS011;5106;50.926;7.080;2023-08-24T13:35:04;8.80;;;3.97;;
10132;SDS011;5106;50.926;7.080;2023-08-24T13:37:30;7.53;;;3.70;;
10132;SDS011;5106;50.926;7.080;2023-08-24T13:39:57;9.02;;;3.90;;
10132;SDS011;5106;50.926;7.080;2023-08-24T13:42:24;8.18;;;3.75;;
10132;SDS011;5106;50.926;7.080;2023-08-24T13:44:49;7.38;;;3.67;;
10132;SDS011;5106;50.926;7.080;2023-08-24T13:47:15;5.30;;;3.13;;
10132;SDS011;5106;50.926;7.080;2023-08-24T13:49:40;6.85;;;3.15;;
10132;SDS011;5106;50.926;7.080;2023-08-24T13:52:06;6.68;;;3.33;;
10132;SDS011;5106;50.926;7.080;2023-08-24T13:54:32;8.57;;;3.17;;
10132;SDS011;5106;50.926;7.080;2023-08-24T13:56:58;7.20;;;2.92;;
10132;SDS011;5106;50.926;7.080;2023-08-24T13:59:25;5.00;;;3.40;;
10132;SDS011;5106;50.926;7.080;2023-08-24T14:01:51;5.93;;;3.08;;
10132;SDS011;5106;50.926;7.080;2023-08-24T14:04:16;11.40;;;3.25;;
10132;SDS011;5106;50.926;7.080;2023-08-24T14:06:42;5.15;;;2.90;;
10132;SDS011;5106;50.926;7.080;2023-08-24T14:09:07;8.35;;;3.30;;
10132;SDS011;5106;50.926;7.080;2023-08-24T14:11:33;4.43;;;3.00;;
10132;SDS011;5106;50.926;7.080;2023-08-24T14:13:58;5.40;;;3.17;;
10132;SDS011;5106;50.926;7.080;2023-08-24T14:16:24;7.80;;;3.08;;
10132;SDS011;5106;50.926;7.080;2023-08-24T14:18:51;11.25;;;3.42;;
10132;SDS011;5106;50.926;7.080;2023-08-24T14:21:18;3.70;;;2.72;;
10132;SDS011;5106;50.926;7.080;2023-08-24T14:23:48;18.55;;;4.35;;
10132;SDS011;5106;50.926;7.080;2023-08-24T14:26:14;4.32;;;3.25;;
10132;SDS011;5106;50.926;7.080;2023-08-24T14:28:52;3.78;;;3.10;;
10132;SDS011;5106;50.926;7.080;2023-08-24T14:31:23;6.47;;;3.03;;
10132;SDS011;5106;50.926;7.080;2023-08-24T14:33:50;5.50;;;3.15;;
10132;SDS011;5106;50.926;7.080;2023-08-24T14:36:16;5.22;;;3.30;;
10132;SDS011;5106;50.926;7.080;2023-08-24T14:38:43;6.47;;;2.90;;
10132;SDS011;5106;50.926;7.080;2023-08-24T14:41:09;5.53;;;3.20;;
10132;SDS011;5106;50.926;7.080;2023-08-24T14:43:35;5.20;;;2.72;;
10132;SDS011;5106;50.926;7.080;2023-08-24T14:46:01;4.95;;;3.00;;
10132;SDS011;5106;50.926;7.080;2023-08-24T14:48:27;5.28;;;3.20;;
10132;SDS011;5106;50.926;7.080;2023-08-24T14:50:53;6.60;;;3.38;;
10132;SDS011;5106;50.926;7.080;2023-08-24T14:53:19;5.03;;;3.13;;
10132;SDS011;5106;50.926;7.080;2023-08-24T14:55:44;5.85;;;2.75;;
10132;SDS011;5106;50.926;7.080;2023-08-24T14:58:10;9.65;;;3.25;;
10132;SDS011;5106;50.926;7.080;2023-08-24T15:00:36;5.53;;;2.83;;
10132;SDS011;5106;50.926;7.080;2023-08-24T15:03:02;6.57;;;2.22;;
10132;SDS011;5106;50.926;7.080;2023-08-24T15:05:28;5.10;;;2.60;;
10132;SDS011;5106;50.926;7.080;2023-08-24T15:08:02;6.18;;;3.03;;
10132;SDS011;5106;50.926;7.080;2023-08-24T15:10:28;6.50;;;2.50;;
10132;SDS011;5106;50.926;7.080;2023-08-24T15:12:53;4.30;;;2.60;;